createdAt,value
2018-05-09T00:01:14.231Z,99781.66
2018-05-09T00:03:41.694Z,99789.44
2018-05-09T00:06:09.059Z,99782.14
2018-05-09T00:08:36.460Z,99781.14
2018-05-09T00:11:03.888Z,99788.50
2018-05-09T00:13:31.302Z,99782.94
2018-05-09T00:15:58.700Z,99783.95
2018-05-09T00:18:26.126Z,99788.33
2018-05-09T00:20:53.520Z,99781.58
2018-05-09T00:23:20.932Z,99781.22
2018-05-09T00:25:48.340Z,99780.44
2018-05-09T00:28:15.756Z,99779.23
2018-05-09T00:30:43.175Z,99777.84
2018-05-09T00:33:10.576Z,99771.33
2018-05-09T00:35:38.309Z,99776.28
2018-05-09T00:38:05.709Z,99774.13
2018-05-09T00:40:33.104Z,99774.52
2018-05-09T00:43:00.520Z,99764.02
2018-05-09T00:45:27.925Z,99767.39
2018-05-09T00:47:55.340Z,99766.61
2018-05-09T00:50:22.743Z,99763.85
2018-05-09T00:52:50.152Z,99764.63
2018-05-09T00:55:17.571Z,99763.05
2018-05-09T00:57:44.968Z,99758.10
2018-05-09T01:00:12.373Z,99756.33
2018-05-09T01:02:40.070Z,99758.88
2018-05-09T01:05:07.464Z,99755.92
2018-05-09T01:07:34.860Z,99757.52
2018-05-09T01:10:02.269Z,99762.48
2018-05-09T01:12:29.688Z,99752.97
2018-05-09T01:14:57.085Z,99749.58
2018-05-09T01:17:24.481Z,99748.39
2018-05-09T01:19:51.897Z,99749.61
2018-05-09T01:22:19.283Z,99746.02
2018-05-09T01:24:46.696Z,99745.21
2018-05-09T01:27:14.093Z,99748.37
2018-05-09T01:29:41.516Z,99749.95
2018-05-09T01:32:08.917Z,99748.38
2018-05-09T01:34:36.332Z,99748.16
2018-05-09T01:37:03.732Z,99749.37
2018-05-09T01:39:31.134Z,99748.38
2018-05-09T01:41:58.566Z,99742.42
2018-05-09T01:44:25.971Z,99743.59
2018-05-09T01:46:53.393Z,99742.23
2018-05-09T01:49:20.792Z,99746.78
2018-05-09T01:51:48.224Z,99748.34
2018-05-09T01:54:15.622Z,99738.07
2018-05-09T01:56:43.021Z,99737.65
2018-05-09T01:59:10.432Z,99739.25
2018-05-09T02:01:37.827Z,99737.46
2018-05-09T02:04:05.247Z,99734.09
2018-05-09T02:06:32.645Z,99737.26
2018-05-09T02:09:00.064Z,99737.27
2018-05-09T02:11:27.460Z,99735.88
2018-05-09T02:13:54.876Z,99737.25
2018-05-09T02:16:22.344Z,99743.21
2018-05-09T02:18:49.739Z,99736.23
2018-05-09T02:21:17.144Z,99744.57
2018-05-09T02:23:44.560Z,99739.01
2018-05-09T02:26:11.993Z,99739.19
2018-05-09T02:28:39.388Z,99743.74
2018-05-09T02:31:06.829Z,99752.62
2018-05-09T02:33:34.216Z,99743.33
2018-05-09T02:36:01.631Z,99743.34
2018-05-09T02:38:29.046Z,99742.33
2018-05-09T02:40:56.444Z,99739.34
2018-05-09T02:43:23.853Z,99738.77
2018-05-09T02:45:51.508Z,99735.38
2018-05-09T02:48:18.909Z,99744.28
2018-05-09T02:50:46.321Z,99749.03
2018-05-09T02:53:13.744Z,99744.64
2018-05-09T02:55:41.156Z,99745.81
2018-05-09T02:58:08.623Z,99745.63
2018-05-09T03:00:36.024Z,99749.77
2018-05-09T03:03:03.426Z,99752.73
2018-05-09T03:05:30.842Z,99744.19
2018-05-09T03:07:58.244Z,99746.97
2018-05-09T03:10:25.656Z,99748.33
2018-05-09T03:12:53.072Z,99743.18
2018-05-09T03:15:20.495Z,99746.56
2018-05-09T03:17:48.197Z,99744.98
2018-05-09T03:20:15.592Z,99744.01
2018-05-09T03:22:42.998Z,99752.11
2018-05-09T03:25:10.404Z,99758.19
2018-05-09T03:27:37.811Z,99753.81
2018-05-09T03:30:05.486Z,99749.27
2018-05-09T03:32:32.887Z,99753.42
2018-05-09T03:35:00.303Z,99753.83
2018-05-09T03:37:27.767Z,99756.59
2018-05-09T03:39:55.124Z,99753.82
2018-05-09T03:42:22.834Z,99748.30
2018-05-09T03:44:50.235Z,99751.70
2018-05-09T03:47:17.643Z,99751.33
2018-05-09T03:49:45.066Z,99753.11
2018-05-09T03:52:12.519Z,99752.10
2018-05-09T03:54:39.924Z,99750.13
2018-05-09T03:57:07.332Z,99754.49
2018-05-09T03:59:34.749Z,99744.41
2018-05-09T04:02:14.091Z,99747.80
2018-05-09T04:04:53.368Z,99749.39
2018-05-09T04:07:32.563Z,99753.73
2018-05-09T04:09:59.975Z,99758.11
2018-05-09T04:12:27.376Z,99756.91
2018-05-09T04:14:54.816Z,99750.19
2018-05-09T04:17:22.188Z,99760.68
2018-05-09T04:19:49.617Z,99763.88
2018-05-09T04:22:17.017Z,99762.91
2018-05-09T04:24:44.467Z,99767.27
2018-05-09T04:27:11.879Z,99761.12
2018-05-09T04:29:39.277Z,99764.90
2018-05-09T04:32:06.701Z,99767.50
2018-05-09T04:34:34.100Z,99770.13
2018-05-09T04:37:01.497Z,99768.98
2018-05-09T04:39:28.964Z,99765.84
2018-05-09T04:41:56.352Z,99768.27
2018-05-09T04:44:23.768Z,99763.83
2018-05-09T04:46:51.161Z,99759.27
2018-05-09T04:49:18.552Z,99765.56
2018-05-09T04:51:45.968Z,99763.22
2018-05-09T04:54:13.365Z,99761.66
2018-05-09T04:56:41.156Z,99752.09
2018-05-09T04:59:08.548Z,99751.30
2018-05-09T05:01:35.975Z,99739.98
2018-05-09T05:04:03.387Z,99745.37
2018-05-09T05:06:31.491Z,99747.30
2018-05-09T05:08:59.212Z,99754.50
2018-05-09T05:11:26.609Z,99752.81
2018-05-09T05:13:54.016Z,99745.36
2018-05-09T05:16:21.748Z,99752.04
2018-05-09T05:18:49.139Z,99752.02
2018-05-09T05:21:16.540Z,99752.80
2018-05-09T05:23:43.952Z,99747.73
2018-05-09T05:26:11.371Z,99753.34
2018-05-09T05:28:38.780Z,99751.13
2018-05-09T05:31:06.185Z,99749.11
2018-05-09T05:33:33.592Z,99751.84
2018-05-09T05:36:00.988Z,99754.59
2018-05-09T05:38:28.423Z,99748.87
2018-05-09T05:40:55.820Z,99745.42
2018-05-09T05:43:23.228Z,99741.25
2018-05-09T05:45:50.644Z,99745.57
2018-05-09T05:48:18.057Z,99741.38
2018-05-09T05:50:45.698Z,99737.23
2018-05-09T05:53:13.089Z,99743.59
2018-05-09T05:55:40.497Z,99742.94
2018-05-09T05:58:07.919Z,99748.94
2018-05-09T06:00:35.312Z,99759.30
2018-05-09T06:03:02.736Z,99756.19
2018-05-09T06:05:30.171Z,99759.50
2018-05-09T06:07:57.595Z,99753.66
2018-05-09T06:10:24.976Z,99751.88
2018-05-09T06:12:52.388Z,99756.81
2018-05-09T06:15:19.805Z,99757.71
2018-05-09T06:17:47.205Z,99753.69
2018-05-09T06:20:14.623Z,99756.62
2018-05-09T06:22:42.044Z,99753.29
2018-05-09T06:25:09.449Z,99757.14
2018-05-09T06:27:36.925Z,99755.54
2018-05-09T06:30:04.332Z,99763.57
2018-05-09T06:32:31.732Z,99764.84
2018-05-09T06:34:59.195Z,99769.44
2018-05-09T06:37:26.589Z,99775.41
2018-05-09T06:39:54.042Z,99773.83
2018-05-09T06:42:21.456Z,99767.83
2018-05-09T06:44:48.851Z,99770.91
2018-05-09T06:47:16.273Z,99766.48
2018-05-09T06:49:43.668Z,99765.35
2018-05-09T06:52:11.059Z,99763.22
2018-05-09T06:54:38.480Z,99761.86
2018-05-09T06:57:05.916Z,99763.34
2018-05-09T06:59:33.327Z,99760.96
2018-05-09T07:02:00.720Z,99759.89
2018-05-09T07:04:28.138Z,99765.73
2018-05-09T07:06:55.639Z,99765.94
2018-05-09T07:09:23.031Z,99764.91
2018-05-09T07:11:50.436Z,99772.28
2018-05-09T07:14:17.844Z,99777.61
2018-05-09T07:16:45.237Z,99781.59
2018-05-09T07:19:12.659Z,99774.47
2018-05-09T07:21:40.048Z,99776.26
2018-05-09T07:24:07.469Z,99777.08
2018-05-09T07:26:34.864Z,99775.88
2018-05-09T07:29:02.256Z,99783.84
2018-05-09T07:31:29.667Z,99778.80
2018-05-09T07:33:57.060Z,99785.27
2018-05-09T07:36:24.577Z,99785.44
2018-05-09T07:38:51.979Z,99789.61
2018-05-09T07:41:19.395Z,99782.98
2018-05-09T07:43:46.788Z,99784.65
2018-05-09T07:46:14.216Z,99781.28
2018-05-09T07:48:41.625Z,99781.56
2018-05-09T07:51:09.092Z,99784.11
2018-05-09T07:53:36.647Z,99774.90
2018-05-09T07:56:04.041Z,99773.44
2018-05-09T07:58:31.436Z,99774.08
2018-05-09T08:00:58.916Z,99764.37
2018-05-09T08:03:26.320Z,99771.47
2018-05-09T08:05:53.839Z,99775.72
2018-05-09T08:08:21.155Z,99773.05
2018-05-09T08:10:48.616Z,99769.02
2018-05-09T08:13:16.026Z,99764.20
2018-05-09T08:15:43.428Z,99774.16
2018-05-09T08:18:10.840Z,99765.80
2018-05-09T08:20:38.236Z,99770.22
2018-05-09T08:23:05.636Z,99765.31
2018-05-09T08:25:33.063Z,99760.25
2018-05-09T08:28:00.451Z,99760.69
2018-05-09T08:30:27.880Z,99764.55
2018-05-09T08:32:55.331Z,99763.55
2018-05-09T08:35:22.719Z,99761.23
2018-05-09T08:37:50.465Z,99761.05
2018-05-09T08:40:18.218Z,99765.77
2018-05-09T08:42:45.632Z,99759.06
2018-05-09T08:45:13.037Z,99768.77
2018-05-09T08:47:40.458Z,99765.45
2018-05-09T08:50:07.922Z,99767.75
2018-05-09T08:52:35.344Z,99766.80
2018-05-09T08:55:02.733Z,99768.44
2018-05-09T08:57:30.163Z,99765.23
2018-05-09T08:59:57.589Z,99760.13
2018-05-09T09:02:25.015Z,99766.05
2018-05-09T09:04:52.428Z,99760.70
2018-05-09T09:07:19.824Z,99756.15
2018-05-09T09:09:47.239Z,99757.72
2018-05-09T09:12:14.636Z,99760.94
2018-05-09T09:14:42.068Z,99749.21
2018-05-09T09:17:09.456Z,99754.22
2018-05-09T09:19:36.861Z,99756.47
2018-05-09T09:22:04.284Z,99748.43
2018-05-09T09:24:31.699Z,99745.54
2018-05-09T09:26:59.110Z,99749.87
2018-05-09T09:29:26.500Z,99751.34
2018-05-09T09:31:53.917Z,99752.69
2018-05-09T09:34:21.327Z,99739.16
2018-05-09T09:36:48.723Z,99740.66
2018-05-09T09:39:16.161Z,99739.52
2018-05-09T09:41:43.555Z,99740.34
2018-05-09T09:44:10.952Z,99730.17
2018-05-09T09:46:38.368Z,99728.84
2018-05-09T09:49:05.792Z,99726.77
2018-05-09T09:51:33.217Z,99728.50
2018-05-09T09:54:00.627Z,99727.48
2018-05-09T09:56:28.280Z,99715.14
2018-05-09T09:58:55.739Z,99722.08
2018-05-09T10:01:23.151Z,99722.58
2018-05-09T10:03:50.576Z,99712.67
2018-05-09T10:06:17.967Z,99712.22
2018-05-09T10:08:45.371Z,99708.95
2018-05-09T10:11:12.808Z,99707.95
2018-05-09T10:13:40.237Z,99706.08
2018-05-09T10:16:07.724Z,99704.47
2018-05-09T10:18:35.060Z,99702.19
2018-05-09T10:21:02.456Z,99700.92
2018-05-09T10:23:29.888Z,99696.67
2018-05-09T10:25:57.403Z,99705.70
2018-05-09T10:28:24.800Z,99703.86
2018-05-09T10:30:52.248Z,99689.53
2018-05-09T10:33:19.667Z,99695.24
2018-05-09T10:35:47.076Z,99688.59
2018-05-09T10:38:14.466Z,99682.60
2018-05-09T10:40:41.884Z,99676.52
2018-05-09T10:43:09.281Z,99665.95
2018-05-09T10:45:36.716Z,99673.66
2018-05-09T10:48:04.121Z,99668.24
2018-05-09T10:50:31.514Z,99674.95
2018-05-09T10:52:58.927Z,99678.41
2018-05-09T10:55:27.244Z,99667.77
2018-05-09T10:57:54.672Z,99660.77
2018-05-09T11:00:22.080Z,99660.11
2018-05-09T11:02:49.485Z,99669.92
2018-05-09T11:05:16.884Z,99669.90
2018-05-09T11:07:44.284Z,99672.65
2018-05-09T11:10:11.703Z,99666.86
2018-05-09T11:12:39.100Z,99662.73
2018-05-09T11:15:06.544Z,99669.64
2018-05-09T11:17:34.005Z,99662.66
2018-05-09T11:20:01.342Z,99662.40
2018-05-09T11:22:28.775Z,99666.02
2018-05-09T11:24:56.226Z,99660.74
2018-05-09T11:27:23.626Z,99663.79
2018-05-09T11:29:51.059Z,99656.36
2018-05-09T11:32:18.461Z,99661.16
2018-05-09T11:34:46.017Z,99663.12
2018-05-09T11:37:13.416Z,99650.91
2018-05-09T11:39:40.812Z,99638.30
2018-05-09T11:42:08.252Z,99639.34
2018-05-09T11:44:35.645Z,99637.07
2018-05-09T11:47:03.059Z,99629.74
2018-05-09T11:49:30.480Z,99630.73
2018-05-09T11:51:57.884Z,99629.98
2018-05-09T11:54:25.339Z,99628.13
2018-05-09T11:56:52.737Z,99626.67
2018-05-09T11:59:20.133Z,99624.12
2018-05-09T12:01:47.543Z,99612.45
2018-05-09T12:04:14.935Z,99621.95
2018-05-09T12:06:42.352Z,99625.26
2018-05-09T12:09:09.806Z,99619.63
2018-05-09T12:11:37.216Z,99618.09
2018-05-09T12:14:04.613Z,99605.16
2018-05-09T12:16:32.036Z,99611.58
2018-05-09T12:18:59.435Z,99607.41
2018-05-09T12:21:26.848Z,99603.23
2018-05-09T12:23:54.259Z,99599.14
2018-05-09T12:26:21.669Z,99611.27
2018-05-09T12:28:49.104Z,99601.60
2018-05-09T12:31:16.508Z,99607.63
2018-05-09T12:33:43.904Z,99593.67
2018-05-09T12:36:11.320Z,99584.31
2018-05-09T12:38:38.739Z,99597.58
2018-05-09T12:41:06.200Z,99588.42
2018-05-09T12:43:33.600Z,99588.05
2018-05-09T12:46:01.007Z,99587.05
2018-05-09T12:48:28.444Z,99580.36
2018-05-09T12:50:55.833Z,99576.39
2018-05-09T12:53:23.254Z,99569.74
2018-05-09T12:55:50.659Z,99567.23
2018-05-09T12:58:18.060Z,99574.58
2018-05-09T13:00:45.504Z,99562.81
2018-05-09T13:03:12.913Z,99563.28
2018-05-09T13:05:40.312Z,99556.30
2018-05-09T13:08:07.728Z,99569.27
2018-05-09T13:10:35.132Z,99560.56
2018-05-09T13:13:02.577Z,99561.34
2018-05-09T13:15:29.968Z,99554.69
2018-05-09T13:17:57.361Z,99548.09
2018-05-09T13:20:24.779Z,99551.28
2018-05-09T13:22:52.183Z,99560.72
2018-05-09T13:25:19.580Z,99547.98
2018-05-09T13:27:46.996Z,99536.77
2018-05-09T13:30:14.399Z,99538.53
2018-05-09T13:32:41.810Z,99526.56
2018-05-09T13:35:09.233Z,99528.98
2018-05-09T13:37:36.656Z,99527.81
2018-05-09T13:40:04.090Z,99527.30
2018-05-09T13:42:31.473Z,99517.92
2018-05-09T13:44:58.888Z,99518.08
2018-05-09T13:47:26.292Z,99514.12
2018-05-09T13:49:53.708Z,99515.52
2018-05-09T13:52:21.107Z,99513.56
2018-05-09T13:54:48.508Z,99510.31
2018-05-09T13:57:15.930Z,99513.78
2018-05-09T13:59:43.327Z,99502.20
2018-05-09T14:02:10.728Z,99496.22
2018-05-09T14:04:38.164Z,99500.19
2018-05-09T14:07:05.564Z,99497.92
2018-05-09T14:09:32.958Z,99505.97
2018-05-09T14:12:00.385Z,99502.74
2018-05-09T14:14:27.908Z,99496.70
2018-05-09T14:16:55.325Z,99498.23
2018-05-09T14:19:22.725Z,99506.27
2018-05-09T14:21:50.140Z,99504.51
2018-05-09T14:24:17.541Z,99498.66
2018-05-09T14:26:44.961Z,99496.81
2018-05-09T14:29:13.165Z,99495.11
2018-05-09T14:31:40.580Z,99494.16
2018-05-09T14:34:07.981Z,99493.95
2018-05-09T14:36:35.400Z,99496.11
2018-05-09T14:39:03.480Z,99492.58
2018-05-09T14:41:30.885Z,99484.08
2018-05-09T14:43:58.296Z,99493.05
2018-05-09T14:46:25.687Z,99486.67
2018-05-09T14:48:53.107Z,99483.22
2018-05-09T14:51:20.505Z,99487.09
2018-05-09T14:53:47.904Z,99485.09
2018-05-09T14:56:15.714Z,99485.52
2018-05-09T14:58:43.113Z,99485.75
2018-05-09T15:01:10.510Z,99486.54
2018-05-09T15:03:37.928Z,99482.41
2018-05-09T15:06:05.330Z,99486.06
2018-05-09T15:08:32.810Z,99471.83
2018-05-09T15:11:00.170Z,99483.58
2018-05-09T15:13:27.569Z,99485.27
2018-05-09T15:15:54.988Z,99486.94
2018-05-09T15:18:22.432Z,99473.41
2018-05-09T15:20:49.832Z,99476.91
2018-05-09T15:23:17.236Z,99474.19
2018-05-09T15:25:44.648Z,99468.89
2018-05-09T15:28:12.044Z,99460.52
2018-05-09T15:30:39.450Z,99465.20
2018-05-09T15:33:07.149Z,99473.34
2018-05-09T15:35:34.540Z,99460.19
2018-05-09T15:38:01.949Z,99461.69
2018-05-09T15:40:29.357Z,99460.46
2018-05-09T15:42:56.817Z,99464.68
2018-05-09T15:45:24.248Z,99455.52
2018-05-09T15:47:51.700Z,99470.13
2018-05-09T15:50:19.223Z,99461.98
2018-05-09T15:52:46.612Z,99456.42
2018-05-09T15:55:14.012Z,99455.88
2018-05-09T15:57:41.438Z,99458.67
2018-05-09T16:00:08.920Z,99456.67
2018-05-09T16:02:36.263Z,99453.54
2018-05-09T16:05:03.678Z,99455.53
2018-05-09T16:07:31.063Z,99453.02
2018-05-09T16:09:58.465Z,99451.27
2018-05-09T16:12:25.896Z,99446.75
2018-05-09T16:14:53.288Z,99450.43
2018-05-09T16:17:20.706Z,99446.00
2018-05-09T16:19:48.097Z,99450.64
2018-05-09T16:22:15.498Z,99448.96
2018-05-09T16:24:43.236Z,99444.05
2018-05-09T16:27:10.670Z,99445.06
2018-05-09T16:29:38.072Z,99446.38
2018-05-09T16:32:05.480Z,99440.03
2018-05-09T16:34:32.884Z,99445.59
2018-05-09T16:37:00.648Z,99436.92
2018-05-09T16:39:28.066Z,99433.97
2018-05-09T16:41:55.468Z,99430.41
2018-05-09T16:44:22.896Z,99433.39
2018-05-09T16:46:50.341Z,99438.38
2018-05-09T16:49:18.000Z,99436.80
2018-05-09T16:51:45.399Z,99433.39
2018-05-09T16:54:12.802Z,99441.28
2018-05-09T16:56:40.516Z,99435.80
2018-05-09T16:59:07.914Z,99441.28
2018-05-09T17:01:35.500Z,99433.66
2018-05-09T17:04:03.002Z,99424.03
2018-05-09T17:06:30.704Z,99432.41
2018-05-09T17:08:58.103Z,99426.77
2018-05-09T17:11:25.538Z,99431.80
2018-05-09T17:13:52.980Z,99424.84
2018-05-09T17:16:20.388Z,99421.52
2018-05-09T17:18:47.791Z,99426.80
2018-05-09T17:21:32.751Z,99409.83
2018-05-09T17:24:00.168Z,99417.00
2018-05-09T17:26:27.563Z,99414.36
2018-05-09T17:28:54.975Z,99416.06
2018-05-09T17:31:22.376Z,99413.23
2018-05-09T17:33:49.791Z,99408.91
2018-05-09T17:36:17.192Z,99405.37
2018-05-09T17:38:44.669Z,99407.63
2018-05-09T17:41:12.009Z,99405.63
2018-05-09T17:43:39.424Z,99407.12
2018-05-09T17:46:06.828Z,99408.34
2018-05-09T17:48:34.268Z,99402.36
2018-05-09T17:51:01.668Z,99405.07
2018-05-09T17:53:29.194Z,99411.76
2018-05-09T17:55:56.749Z,99407.95
2018-05-09T17:58:24.168Z,99415.41
2018-05-09T18:00:51.593Z,99409.94
2018-05-09T18:03:18.996Z,99413.17
2018-05-09T18:05:46.412Z,99411.25
2018-05-09T18:08:13.821Z,99406.56
2018-05-09T18:10:41.232Z,99409.48
2018-05-09T18:13:08.643Z,99411.23
2018-05-09T18:15:36.044Z,99412.98
2018-05-09T18:18:03.704Z,99409.81
2018-05-09T18:20:31.100Z,99415.17
2018-05-09T18:22:58.499Z,99416.66
2018-05-09T18:25:25.964Z,99423.48
2018-05-09T18:27:53.683Z,99427.03
2018-05-09T18:30:21.084Z,99423.46
2018-05-09T18:32:48.541Z,99419.50
2018-05-09T18:35:15.965Z,99426.09
2018-05-09T18:37:43.370Z,99427.98
2018-05-09T18:40:10.838Z,99426.45
2018-05-09T18:42:38.233Z,99427.81
2018-05-09T18:45:05.637Z,99423.91
2018-05-09T18:47:33.059Z,99425.41
2018-05-09T18:50:00.455Z,99433.56
2018-05-09T18:52:27.880Z,99429.19
2018-05-09T18:54:55.291Z,99428.97
2018-05-09T18:57:22.687Z,99431.16
2018-05-09T18:59:50.553Z,99422.54
2018-05-09T19:02:17.867Z,99425.06
2018-05-09T19:04:45.300Z,99430.47
2018-05-09T19:07:12.783Z,99422.24
2018-05-09T19:09:40.196Z,99430.98
2018-05-09T19:12:07.602Z,99430.02
2018-05-09T19:14:35.012Z,99423.36
2018-05-09T19:17:02.443Z,99427.82
2018-05-09T19:19:29.840Z,99430.00
2018-05-09T19:21:57.383Z,99426.94
2018-05-09T19:24:24.816Z,99427.61
2018-05-09T19:26:52.212Z,99429.33
2018-05-09T19:29:19.651Z,99438.14
2018-05-09T19:31:47.052Z,99435.46
2018-05-09T19:34:14.476Z,99432.48
2018-05-09T19:36:41.918Z,99432.27
2018-05-09T19:39:09.314Z,99442.00
2018-05-09T19:41:36.827Z,99445.42
2018-05-09T19:44:04.158Z,99440.02
2018-05-09T19:46:31.572Z,99454.13
2018-05-09T19:48:58.981Z,99450.60
2018-05-09T19:51:26.389Z,99452.49
2018-05-09T19:53:53.809Z,99446.30
2018-05-09T19:56:21.205Z,99449.41
2018-05-09T19:58:48.600Z,99449.39
2018-05-09T20:01:16.013Z,99450.05
2018-05-09T20:03:43.423Z,99449.59
2018-05-09T20:06:10.866Z,99457.27
2018-05-09T20:08:38.402Z,99456.28
2018-05-09T20:11:05.785Z,99456.70
2018-05-09T20:13:33.173Z,99448.45
2018-05-09T20:16:00.571Z,99454.12
2018-05-09T20:18:28.464Z,99455.20
2018-05-09T20:20:55.851Z,99452.66
2018-05-09T20:23:23.251Z,99454.88
2018-05-09T20:25:50.857Z,99449.27
2018-05-09T20:28:18.307Z,99455.01
2018-05-09T20:30:51.257Z,99452.39
2018-05-09T20:33:18.708Z,99450.56
2018-05-09T20:35:46.107Z,99451.12
2018-05-09T20:38:13.501Z,99448.86
2018-05-09T20:40:40.926Z,99446.86
2018-05-09T20:43:08.315Z,99448.84
2018-05-09T20:45:35.709Z,99448.38
2018-05-09T20:48:03.133Z,99444.35
2018-05-09T20:50:30.532Z,99441.12
2018-05-09T20:52:57.966Z,99441.45
2018-05-09T20:55:29.126Z,99439.66
2018-05-09T20:57:56.545Z,99440.84
2018-05-09T21:00:23.959Z,99444.00
2018-05-09T21:02:51.404Z,99440.41
2018-05-09T21:05:18.816Z,99444.17
2018-05-09T21:07:56.280Z,99444.10
2018-05-09T21:10:23.729Z,99448.30
2018-05-09T21:12:51.137Z,99451.25
2018-05-09T21:15:18.547Z,99447.61
2018-05-09T21:17:45.956Z,99442.94
2018-05-09T21:20:13.451Z,99451.30
2018-05-09T21:22:40.783Z,99450.61
2018-05-09T21:25:08.176Z,99452.75
2018-05-09T21:27:35.649Z,99454.08
2018-05-09T21:30:03.007Z,99447.63
2018-05-09T21:32:30.428Z,99451.59
2018-05-09T21:34:57.839Z,99451.91
2018-05-09T21:37:25.244Z,99449.48
2018-05-09T21:39:52.664Z,99446.91
2018-05-09T21:42:20.068Z,99445.03
2018-05-09T21:44:47.496Z,99449.38
2018-05-09T21:47:14.920Z,99451.13
2018-05-09T21:49:42.343Z,99443.70
2018-05-09T21:52:09.747Z,99451.98
2018-05-09T21:54:37.159Z,99455.73
2018-05-09T21:57:04.568Z,99452.23
2018-05-09T21:59:31.984Z,99451.95
2018-05-09T22:01:59.384Z,99452.25
2018-05-09T22:04:26.804Z,99453.53
2018-05-09T22:06:54.220Z,99445.44
2018-05-09T22:09:21.616Z,99450.75
2018-05-09T22:11:49.052Z,99449.45
2018-05-09T22:14:16.443Z,99440.13
2018-05-09T22:16:43.852Z,99441.02
2018-05-09T22:19:11.279Z,99439.97
2018-05-09T22:21:38.684Z,99442.33
2018-05-09T22:24:06.093Z,99440.52
2018-05-09T22:26:33.497Z,99437.50
2018-05-09T22:29:01.001Z,99430.31
2018-05-09T22:31:28.407Z,99426.70
2018-05-09T22:33:55.815Z,99429.13
2018-05-09T22:36:23.252Z,99423.28
2018-05-09T22:38:50.667Z,99416.58
2018-05-09T22:41:18.093Z,99420.25
2018-05-09T22:43:45.511Z,99416.38
2018-05-09T22:46:12.891Z,99418.80
2018-05-09T22:48:40.328Z,99416.53
2018-05-09T22:51:07.730Z,99413.34
2018-05-09T22:53:35.346Z,99412.67
2018-05-09T22:56:02.813Z,99413.42
2018-05-09T22:58:30.213Z,99412.16
2018-05-09T23:00:57.636Z,99418.77
2018-05-09T23:03:25.047Z,99414.16
2018-05-09T23:05:52.476Z,99409.73
2018-05-09T23:08:19.905Z,99406.48
2018-05-09T23:10:47.337Z,99402.47
2018-05-09T23:13:14.759Z,99406.93
2018-05-09T23:15:42.172Z,99398.48
2018-05-09T23:18:09.599Z,99397.78
2018-05-09T23:20:37.040Z,99390.08
2018-05-09T23:23:04.469Z,99395.66
2018-05-09T23:25:31.890Z,99393.47
2018-05-09T23:27:59.303Z,99389.34
2018-05-09T23:30:26.724Z,99386.05
2018-05-09T23:32:54.131Z,99380.48
2018-05-09T23:35:21.548Z,99378.69
2018-05-09T23:37:48.947Z,99377.69
2018-05-09T23:40:16.380Z,99376.09
2018-05-09T23:42:43.789Z,99373.50
2018-05-09T23:45:11.190Z,99367.37
2018-05-09T23:47:38.616Z,99374.34
2018-05-09T23:50:06.029Z,99371.17
2018-05-09T23:52:33.468Z,99370.18
2018-05-09T23:55:00.871Z,99373.17
2018-05-09T23:57:28.295Z,99370.22
2018-05-09T23:59:55.757Z,99370.48
